My Meet Scores
Marina Figge, Gymnastics X-Calibur - MyMeetScores.com
Top100 | Top Teams | Upcoming Meets | Completed Meets | Latest | Add Scores | Help| Support | Bookmark and Share

Marina Figge, Gymnastics X-Calibur
Personal Bests
LevelVault BarsBeamFloorAA
39.8009.625 9.7259.62538.275
49.7009.750 9.5509.62538.300
Scores on America's Top 100as of 09.19.2020
Year Level Vault Bars Beam Floor AA
2020 49.70038.300

Click here to view our exclusive Top 100 Collection
Meet Scores
Date Meet Team Session Level Division Vault Bars Beam Floor AA
2020-03-06 Illinois Level 4 State Championships Gymnastics X-Calibur 2 4 Ch E 9.700 1 9.525 3 9.550 8 9.525 3 38.300 2
2020-02-21 Kinetic Classic Gymnastics X-Calibur 06 4 Younger 9.350 1T 9.525 11T 9.450 12T 9.625 1 37.950 2T
2020-02-14 Cereal City Classic Gymnastics X-Calibur 07 4 8-9 yrs 9.100 2 9.275 1 9.475 2 9.350 2 37.200 2
2020-01-24 King Arthur Invitational Gymnastics X-Calibur 1 4 Jr B 9.575 1 9.050 2T 9.425 5 9.425 2 37.475 2
2020-01-10 St Jude Benefit Meet Gymnastics X-Calibur 2A 4 Jr 9.050 6T 9.750 2 9.250 6T 9.125 7T 37.175 4
2019-12-06 Ultimate Wish Classic Gymnastics X-Calibur 10 4 JR A 9.500 1 9.575 1 9.450 1 9.550 2 38.075 1
2019-10-19 Monster Mash 2019 Gymnastics X-Calibur 2 4 Child 9.250 1T 9.700 1 9.300 4 9.175 5T 37.425 1
2019-03-08 2019 Illinois Level 3 State Championship Gymnastics X-Calibur All 3 Ch F 9.775 1 9.375 9 9.500 2 9.625 2T 38.275 1
2019-02-22 Gasparilla Classic Gymnastics X-Calibur E7 3 L3 e7 gp2 9.800 1 9.025 4 9.725 1 9.500 2 38.050 1
2019-02-08 Midwest Twisters Harley Meet Womens Gymnastics X-Calibur T07 3 8a 9.350 3 8.950 5 9.250 2 9.400 3 36.950 2
2019-01-25 King Arthur Invitational Gymnastics X-Calibur 14 3 JR B 9.500 1 9.425 1 9.450 1 9.300 1 37.675 1
2019-01-18 2019 Bravo Classic Gymnastics X-Calibur 6B 3 Child 9.750 1 9.475 1 9.475 1 9.575 1 38.275 1
2018-11-30 Ultimate Wish Classic Gymnastics X-Calibur 7 3 JR 9.600 1 9.600 1 9.375 1 9.550 1 38.125 1
2018-05-03 Illinois USA Gymnastics Level 3 State Championships Gymnastics X-Calibur 8 3 Ch B 9.725 2T 9.450 6 9.500 2 9.425 6T 38.100 4
2018-03-01 Derby Classic 2018 Gymnastics X-Calibur 4A 3 Jr A 8.400 11 9.150 8 8.750 5 8.950 9 35.250 8
2018-02-23 Kinetic Classic Gymnastics X-Calibur 4 3 Younger 9.325 18 9.325 20T 8.700 73T 9.175 50T 36.525 39
2018-02-03 Midwest Games Gymnastics X-Calibur 5 3 JRA 9.200 4 9.200 7T 9.200 1 9.200 9T 36.800 4
2018-01-26 King Arthur Invitational Gymnastics X-Calibur 5 3 JRA 9.525 5 9.350 5 9.300 7 8.850 13 37.025 7
2018-01-12 St Jude Benefit Meet Gymnastics X-Calibur 5A 3 JrA 9.450 6 9.625 1 9.450 1 9.050 5 37.575 1
2017-12-01 Ultimate Wish Classic Gymnastics X-Calibur 4 3 JR1 8.900 9T 8.925 7 8.350 11 8.825 9T 35.000 10
Get your scores on
a t-shirt, pin, or hoodie

www.lazysuits.com